sensor_id;sensor_type;location;lat;lon;timestamp;P1;durP1;ratioP1;P2;durP2;ratioP2
25609;SDS011;13479;49.044;8.716;2023-04-24T04:02:46;2.53;;;0.90;;
25609;SDS011;13479;49.044;8.716;2023-04-24T04:05:11;4.07;;;1.27;;
25609;SDS011;13479;49.044;8.716;2023-04-24T04:07:36;3.47;;;1.20;;
25609;SDS011;13479;49.044;8.716;2023-04-24T04:10:02;3.10;;;1.20;;
25609;SDS011;13479;49.044;8.716;2023-04-24T04:12:28;3.80;;;0.95;;
25609;SDS011;13479;49.044;8.716;2023-04-24T04:14:53;2.58;;;1.27;;
25609;SDS011;13479;49.044;8.716;2023-04-24T04:17:18;2.03;;;1.42;;
25609;SDS011;13479;49.044;8.716;2023-04-24T04:19:44;4.53;;;1.90;;
25609;SDS011;13479;49.044;8.716;2023-04-24T04:22:09;4.75;;;1.65;;
25609;SDS011;13479;49.044;8.716;2023-04-24T04:24:35;7.47;;;1.70;;
25609;SDS011;13479;49.044;8.716;2023-04-24T04:27:03;4.13;;;1.40;;
25609;SDS011;13479;49.044;8.716;2023-04-24T04:29:29;2.38;;;1.40;;
25609;SDS011;13479;49.044;8.716;2023-04-24T04:31:56;4.93;;;1.50;;
25609;SDS011;13479;49.044;8.716;2023-04-24T04:34:21;3.22;;;1.75;;
25609;SDS011;13479;49.044;8.716;2023-04-24T04:36:47;3.67;;;1.65;;
25609;SDS011;13479;49.044;8.716;2023-04-24T04:39:12;3.60;;;1.40;;
25609;SDS011;13479;49.044;8.716;2023-04-24T04:41:39;2.40;;;1.20;;
25609;SDS011;13479;49.044;8.716;2023-04-24T04:44:05;2.83;;;1.30;;
25609;SDS011;13479;49.044;8.716;2023-04-24T04:46:31;1.77;;;1.00;;
25609;SDS011;13479;49.044;8.716;2023-04-24T04:49:02;2.65;;;1.50;;
25609;SDS011;13479;49.044;8.716;2023-04-24T04:51:27;5.60;;;1.40;;
25609;SDS011;13479;49.044;8.716;2023-04-24T04:53:53;2.05;;;1.40;;
25609;SDS011;13479;49.044;8.716;2023-04-24T04:56:18;5.90;;;1.70;;
25609;SDS011;13479;49.044;8.716;2023-04-24T04:58:44;4.50;;;1.50;;
25609;SDS011;13479;49.044;8.716;2023-04-24T05:01:09;2.55;;;1.50;;
25609;SDS011;13479;49.044;8.716;2023-04-24T05:03:35;3.03;;;1.55;;
25609;SDS011;13479;49.044;8.716;2023-04-24T05:06:00;3.33;;;1.85;;
25609;SDS011;13479;49.044;8.716;2023-04-24T05:08:26;6.53;;;1.70;;
25609;SDS011;13479;49.044;8.716;2023-04-24T05:10:51;4.70;;;1.45;;
25609;SDS011;13479;49.044;8.716;2023-04-24T05:13:16;2.25;;;1.17;;
25609;SDS011;13479;49.044;8.716;2023-04-24T05:15:42;3.20;;;1.58;;
25609;SDS011;13479;49.044;8.716;2023-04-24T05:18:07;2.28;;;1.60;;
25609;SDS011;13479;49.044;8.716;2023-04-24T05:20:32;2.15;;;1.45;;
25609;SDS011;13479;49.044;8.716;2023-04-24T05:22:57;3.88;;;2.10;;
25609;SDS011;13479;49.044;8.716;2023-04-24T05:25:23;2.13;;;1.70;;
25609;SDS011;13479;49.044;8.716;2023-04-24T05:27:48;3.05;;;1.60;;
25609;SDS011;13479;49.044;8.716;2023-04-24T05:30:13;3.20;;;2.90;;
25609;SDS011;13479;49.044;8.716;2023-04-24T05:32:39;4.40;;;2.60;;
25609;SDS011;13479;49.044;8.716;2023-04-24T05:35:04;3.88;;;2.40;;
25609;SDS011;13479;49.044;8.716;2023-04-24T05:37:30;3.05;;;2.55;;
25609;SDS011;13479;49.044;8.716;2023-04-24T05:39:55;5.20;;;2.50;;
25609;SDS011;13479;49.044;8.716;2023-04-24T05:42:21;4.45;;;2.53;;
25609;SDS011;13479;49.044;8.716;2023-04-24T05:44:46;2.92;;;2.42;;
25609;SDS011;13479;49.044;8.716;2023-04-24T05:47:11;3.03;;;2.10;;
25609;SDS011;13479;49.044;8.716;2023-04-24T05:49:36;4.22;;;2.00;;
25609;SDS011;13479;49.044;8.716;2023-04-24T05:52:02;4.00;;;2.20;;
25609;SDS011;13479;49.044;8.716;2023-04-24T05:54:29;2.55;;;2.10;;
25609;SDS011;13479;49.044;8.716;2023-04-24T05:56:54;3.17;;;2.17;;
25609;SDS011;13479;49.044;8.716;2023-04-24T05:59:20;1.88;;;1.48;;
25609;SDS011;13479;49.044;8.716;2023-04-24T06:01:46;3.22;;;1.38;;
25609;SDS011;13479;49.044;8.716;2023-04-24T06:04:11;1.95;;;1.02;;
25609;SDS011;13479;49.044;8.716;2023-04-24T06:06:38;1.98;;;1.40;;
25609;SDS011;13479;49.044;8.716;2023-04-24T06:09:03;1.70;;;1.50;;
25609;SDS011;13479;49.044;8.716;2023-04-24T06:11:28;2.70;;;1.50;;
25609;SDS011;13479;49.044;8.716;2023-04-24T06:13:54;2.35;;;1.30;;
25609;SDS011;13479;49.044;8.716;2023-04-24T06:16:19;1.65;;;1.42;;
25609;SDS011;13479;49.044;8.716;2023-04-24T06:18:45;2.08;;;1.45;;
25609;SDS011;13479;49.044;8.716;2023-04-24T06:21:11;1.65;;;1.27;;
25609;SDS011;13479;49.044;8.716;2023-04-24T06:23:37;3.47;;;1.40;;
25609;SDS011;13479;49.044;8.716;2023-04-24T06:26:02;1.80;;;1.30;;
25609;SDS011;13479;49.044;8.716;2023-04-24T06:28:27;3.60;;;1.20;;
25609;SDS011;13479;49.044;8.716;2023-04-24T06:30:52;3.10;;;1.30;;
25609;SDS011;13479;49.044;8.716;2023-04-24T06:33:18;3.55;;;1.42;;
25609;SDS011;13479;49.044;8.716;2023-04-24T06:35:43;2.03;;;1.10;;
25609;SDS011;13479;49.044;8.716;2023-04-24T06:38:08;1.80;;;1.30;;
25609;SDS011;13479;49.044;8.716;2023-04-24T06:40:33;1.95;;;1.10;;
25609;SDS011;13479;49.044;8.716;2023-04-24T06:42:59;3.17;;;1.38;;
25609;SDS011;13479;49.044;8.716;2023-04-24T06:45:25;1.58;;;1.20;;
25609;SDS011;13479;49.044;8.716;2023-04-24T06:47:50;2.42;;;1.23;;
25609;SDS011;13479;49.044;8.716;2023-04-24T06:50:15;1.42;;;1.13;;
25609;SDS011;13479;49.044;8.716;2023-04-24T06:52:41;1.95;;;1.20;;
25609;SDS011;13479;49.044;8.716;2023-04-24T06:55:07;2.17;;;1.17;;
25609;SDS011;13479;49.044;8.716;2023-04-24T06:57:32;2.55;;;1.30;;
25609;SDS011;13479;49.044;8.716;2023-04-24T06:59:57;2.53;;;1.10;;
25609;SDS011;13479;49.044;8.716;2023-04-24T07:02:23;9.85;;;1.35;;
25609;SDS011;13479;49.044;8.716;2023-04-24T07:04:48;2.20;;;1.15;;
25609;SDS011;13479;49.044;8.716;2023-04-24T07:07:14;3.70;;;1.30;;
25609;SDS011;13479;49.044;8.716;2023-04-24T07:09:39;1.38;;;1.10;;
25609;SDS011;13479;49.044;8.716;2023-04-24T07:12:07;2.00;;;1.20;;
25609;SDS011;13479;49.044;8.716;2023-04-24T07:14:33;2.40;;;1.20;;
25609;SDS011;13479;49.044;8.716;2023-04-24T07:16:58;3.17;;;1.50;;
25609;SDS011;13479;49.044;8.716;2023-04-24T07:19:23;4.50;;;1.23;;
25609;SDS011;13479;49.044;8.716;2023-04-24T07:21:49;3.10;;;1.40;;
25609;SDS011;13479;49.044;8.716;2023-04-24T07:24:14;3.72;;;1.20;;
25609;SDS011;13479;49.044;8.716;2023-04-24T07:26:40;3.30;;;1.00;;
25609;SDS011;13479;49.044;8.716;2023-04-24T07:29:05;3.17;;;1.20;;
25609;SDS011;13479;49.044;8.716;2023-04-24T07:31:31;1.63;;;0.90;;
25609;SDS011;13479;49.044;8.716;2023-04-24T07:33:56;2.90;;;1.05;;
25609;SDS011;13479;49.044;8.716;2023-04-24T07:36:23;3.38;;;1.10;;
25609;SDS011;13479;49.044;8.716;2023-04-24T07:38:49;4.00;;;1.27;;
25609;SDS011;13479;49.044;8.716;2023-04-24T07:41:14;1.73;;;0.80;;
25609;SDS011;13479;49.044;8.716;2023-04-24T07:43:40;1.50;;;0.70;;
25609;SDS011;13479;49.044;8.716;2023-04-24T07:46:06;1.70;;;1.00;;
25609;SDS011;13479;49.044;8.716;2023-04-24T07:48:32;1.73;;;1.00;;
25609;SDS011;13479;49.044;8.716;2023-04-24T07:50:57;2.92;;;1.10;;
25609;SDS011;13479;49.044;8.716;2023-04-24T07:53:23;2.33;;;1.00;;
25609;SDS011;13479;49.044;8.716;2023-04-24T07:55:48;3.65;;;1.17;;
25609;SDS011;13479;49.044;8.716;2023-04-24T07:58:13;2.45;;;1.30;;
25609;SDS011;13479;49.044;8.716;2023-04-24T08:00:39;1.98;;;1.20;;
25609;SDS011;13479;49.044;8.716;2023-04-24T08:03:04;2.15;;;1.00;;
25609;SDS011;13479;49.044;8.716;2023-04-24T08:05:29;2.88;;;0.88;;
25609;SDS011;13479;49.044;8.716;2023-04-24T08:07:55;1.20;;;0.70;;
25609;SDS011;13479;49.044;8.716;2023-04-24T08:10:21;10.20;;;0.90;;
25609;SDS011;13479;49.044;8.716;2023-04-24T08:12:47;1.20;;;0.90;;
25609;SDS011;13479;49.044;8.716;2023-04-24T08:15:12;3.47;;;0.90;;
25609;SDS011;13479;49.044;8.716;2023-04-24T08:17:38;3.90;;;0.70;;
25609;SDS011;13479;49.044;8.716;2023-04-24T08:20:03;2.55;;;0.82;;
25609;SDS011;13479;49.044;8.716;2023-04-24T08:22:30;1.88;;;0.77;;
25609;SDS011;13479;49.044;8.716;2023-04-24T08:24:55;1.50;;;0.50;;
25609;SDS011;13479;49.044;8.716;2023-04-24T08:27:22;3.22;;;1.00;;
25609;SDS011;13479;49.044;8.716;2023-04-24T08:29:52;1.48;;;0.70;;
25609;SDS011;13479;49.044;8.716;2023-04-24T08:32:21;1.88;;;0.68;;
25609;SDS011;13479;49.044;8.716;2023-04-24T08:34:47;1.10;;;0.60;;
25609;SDS011;13479;49.044;8.716;2023-04-24T08:37:12;1.30;;;0.70;;
25609;SDS011;13479;49.044;8.716;2023-04-24T08:39:38;1.52;;;0.88;;
25609;SDS011;13479;49.044;8.716;2023-04-24T08:42:04;3.35;;;0.90;;
25609;SDS011;13479;49.044;8.716;2023-04-24T08:44:32;1.13;;;0.68;;
25609;SDS011;13479;49.044;8.716;2023-04-24T08:46:59;2.75;;;0.80;;
25609;SDS011;13479;49.044;8.716;2023-04-24T08:49:26;2.75;;;0.77;;
25609;SDS011;13479;49.044;8.716;2023-04-24T08:51:53;1.58;;;0.65;;
25609;SDS011;13479;49.044;8.716;2023-04-24T08:54:18;2.80;;;0.90;;
25609;SDS011;13479;49.044;8.716;2023-04-24T08:56:44;2.92;;;0.70;;
25609;SDS011;13479;49.044;8.716;2023-04-24T08:59:09;3.97;;;0.93;;
25609;SDS011;13479;49.044;8.716;2023-04-24T09:01:35;1.63;;;0.73;;
25609;SDS011;13479;49.044;8.716;2023-04-24T09:04:02;3.58;;;0.90;;
25609;SDS011;13479;49.044;8.716;2023-04-24T09:06:28;1.30;;;0.70;;
25609;SDS011;13479;49.044;8.716;2023-04-24T09:08:55;2.72;;;0.80;;
25609;SDS011;13479;49.044;8.716;2023-04-24T09:11:22;2.85;;;0.85;;
25609;SDS011;13479;49.044;8.716;2023-04-24T09:13:49;1.65;;;0.60;;
25609;SDS011;13479;49.044;8.716;2023-04-24T09:16:16;1.80;;;0.80;;
25609;SDS011;13479;49.044;8.716;2023-04-24T09:18:41;1.02;;;0.65;;
25609;SDS011;13479;49.044;8.716;2023-04-24T09:21:07;1.42;;;0.68;;
25609;SDS011;13479;49.044;8.716;2023-04-24T09:23:33;1.95;;;0.93;;
25609;SDS011;13479;49.044;8.716;2023-04-24T09:26:00;2.95;;;0.75;;
25609;SDS011;13479;49.044;8.716;2023-04-24T09:28:30;3.53;;;0.75;;
25609;SDS011;13479;49.044;8.716;2023-04-24T09:31:03;1.50;;;0.70;;
25609;SDS011;13479;49.044;8.716;2023-04-24T09:33:53;1.90;;;0.80;;
25609;SDS011;13479;49.044;8.716;2023-04-24T09:36:26;1.77;;;0.82;;
25609;SDS011;13479;49.044;8.716;2023-04-24T09:38:59;1.50;;;0.90;;
25609;SDS011;13479;49.044;8.716;2023-04-24T09:41:26;2.72;;;0.90;;
25609;SDS011;13479;49.044;8.716;2023-04-24T09:43:56;2.33;;;1.05;;
25609;SDS011;13479;49.044;8.716;2023-04-24T09:46:29;3.60;;;0.90;;
25609;SDS011;13479;49.044;8.716;2023-04-24T09:48:56;2.53;;;1.10;;
25609;SDS011;13479;49.044;8.716;2023-04-24T09:51:32;2.78;;;0.95;;
25609;SDS011;13479;49.044;8.716;2023-04-24T09:54:01;2.33;;;1.10;;
25609;SDS011;13479;49.044;8.716;2023-04-24T09:56:26;4.07;;;1.15;;
25609;SDS011;13479;49.044;8.716;2023-04-24T09:58:51;3.22;;;1.10;;
25609;SDS011;13479;49.044;8.716;2023-04-24T10:01:28;4.20;;;1.20;;
25609;SDS011;13479;49.044;8.716;2023-04-24T10:03:55;2.33;;;1.20;;
25609;SDS011;13479;49.044;8.716;2023-04-24T10:06:20;3.45;;;1.60;;
25609;SDS011;13479;49.044;8.716;2023-04-24T10:08:46;3.35;;;1.67;;
25609;SDS011;13479;49.044;8.716;2023-04-24T10:11:13;2.90;;;1.70;;
25609;SDS011;13479;49.044;8.716;2023-04-24T10:13:39;2.25;;;1.80;;
25609;SDS011;13479;49.044;8.716;2023-04-24T10:16:05;3.90;;;2.00;;
25609;SDS011;13479;49.044;8.716;2023-04-24T10:18:32;2.80;;;1.70;;
25609;SDS011;13479;49.044;8.716;2023-04-24T10:20:59;6.75;;;2.00;;
25609;SDS011;13479;49.044;8.716;2023-04-24T10:23:25;4.13;;;1.40;;
25609;SDS011;13479;49.044;8.716;2023-04-24T10:25:50;3.00;;;1.75;;
25609;SDS011;13479;49.044;8.716;2023-04-24T10:28:17;2.60;;;1.30;;
25609;SDS011;13479;49.044;8.716;2023-04-24T10:30:44;2.83;;;1.23;;
25609;SDS011;13479;49.044;8.716;2023-04-24T10:33:10;5.82;;;1.27;;
25609;SDS011;13479;49.044;8.716;2023-04-24T10:35:38;4.53;;;1.33;;
25609;SDS011;13479;49.044;8.716;2023-04-24T10:38:07;4.90;;;1.02;;
25609;SDS011;13479;49.044;8.716;2023-04-24T10:40:37;3.95;;;1.40;;
25609;SDS011;13479;49.044;8.716;2023-04-24T10:43:03;2.42;;;1.38;;
25609;SDS011;13479;49.044;8.716;2023-04-24T10:45:31;2.60;;;1.50;;
25609;SDS011;13479;49.044;8.716;2023-04-24T10:47:57;1.98;;;1.23;;
25609;SDS011;13479;49.044;8.716;2023-04-24T10:50:27;3.17;;;1.45;;
25609;SDS011;13479;49.044;8.716;2023-04-24T10:53:04;2.47;;;1.48;;
25609;SDS011;13479;49.044;8.716;2023-04-24T10:55:47;3.40;;;1.23;;
25609;SDS011;13479;49.044;8.716;2023-04-24T10:58:15;2.00;;;1.30;;
25609;SDS011;13479;49.044;8.716;2023-04-24T11:00:42;2.58;;;1.27;;
25609;SDS011;13479;49.044;8.716;2023-04-24T11:03:31;5.80;;;1.52;;
25609;SDS011;13479;49.044;8.716;2023-04-24T11:08:31;3.42;;;1.80;;
25609;SDS011;13479;49.044;8.716;2023-04-24T11:11:02;3.03;;;1.60;;
25609;SDS011;13479;49.044;8.716;2023-04-24T11:16:21;2.45;;;1.30;;
25609;SDS011;13479;49.044;8.716;2023-04-24T11:18:52;3.17;;;1.63;;
25609;SDS011;13479;49.044;8.716;2023-04-24T11:21:24;3.72;;;1.40;;
25609;SDS011;13479;49.044;8.716;2023-04-24T11:23:50;4.00;;;1.50;;
25609;SDS011;13479;49.044;8.716;2023-04-24T11:26:19;3.25;;;1.42;;
25609;SDS011;13479;49.044;8.716;2023-04-24T11:28:50;5.70;;;1.60;;
25609;SDS011;13479;49.044;8.716;2023-04-24T11:31:34;4.95;;;2.08;;
25609;SDS011;13479;49.044;8.716;2023-04-24T11:34:07;3.35;;;1.85;;
25609;SDS011;13479;49.044;8.716;2023-04-24T11:36:37;5.43;;;2.00;;
25609;SDS011;13479;49.044;8.716;2023-04-24T11:39:03;4.97;;;1.67;;
25609;SDS011;13479;49.044;8.716;2023-04-24T11:41:29;4.38;;;1.80;;
25609;SDS011;13479;49.044;8.716;2023-04-24T11:43:55;3.28;;;1.77;;
25609;SDS011;13479;49.044;8.716;2023-04-24T11:46:21;6.07;;;1.90;;
25609;SDS011;13479;49.044;8.716;2023-04-24T11:48:46;3.55;;;1.95;;
25609;SDS011;13479;49.044;8.716;2023-04-24T11:51:12;3.53;;;1.90;;
25609;SDS011;13479;49.044;8.716;2023-04-24T11:53:38;5.13;;;2.25;;
25609;SDS011;13479;49.044;8.716;2023-04-24T11:56:04;5.72;;;2.22;;
25609;SDS011;13479;49.044;8.716;2023-04-24T11:58:34;3.70;;;2.38;;
25609;SDS011;13479;49.044;8.716;2023-04-24T12:01:05;3.13;;;1.88;;
25609;SDS011;13479;49.044;8.716;2023-04-24T12:03:31;4.50;;;2.00;;
25609;SDS011;13479;49.044;8.716;2023-04-24T12:06:09;4.20;;;2.60;;
25609;SDS011;13479;49.044;8.716;2023-04-24T12:08:36;3.17;;;2.38;;
25609;SDS011;13479;49.044;8.716;2023-04-24T12:11:03;5.35;;;2.10;;
25609;SDS011;13479;49.044;8.716;2023-04-24T12:13:29;3.25;;;2.10;;
25609;SDS011;13479;49.044;8.716;2023-04-24T12:15:58;9.15;;;2.10;;
25609;SDS011;13479;49.044;8.716;2023-04-24T12:18:24;3.95;;;1.80;;
25609;SDS011;13479;49.044;8.716;2023-04-24T12:20:50;4.05;;;2.00;;
25609;SDS011;13479;49.044;8.716;2023-04-24T12:23:16;3.67;;;2.13;;
25609;SDS011;13479;49.044;8.716;2023-04-24T12:25:42;3.95;;;1.80;;
25609;SDS011;13479;49.044;8.716;2023-04-24T12:28:09;5.80;;;1.90;;
25609;SDS011;13479;49.044;8.716;2023-04-24T12:30:43;4.90;;;1.90;;
25609;SDS011;13479;49.044;8.716;2023-04-24T12:33:10;3.22;;;1.92;;
25609;SDS011;13479;49.044;8.716;2023-04-24T12:35:35;3.03;;;2.05;;
25609;SDS011;13479;49.044;8.716;2023-04-24T12:38:10;4.60;;;2.30;;
25609;SDS011;13479;49.044;8.716;2023-04-24T12:40:39;5.07;;;2.28;;
25609;SDS011;13479;49.044;8.716;2023-04-24T12:45:43;4.40;;;2.25;;
25609;SDS011;13479;49.044;8.716;2023-04-24T12:48:09;4.90;;;2.25;;
25609;SDS011;13479;49.044;8.716;2023-04-24T12:50:35;4.95;;;2.05;;
25609;SDS011;13479;49.044;8.716;2023-04-24T12:53:00;3.85;;;2.00;;
25609;SDS011;13479;49.044;8.716;2023-04-24T12:55:25;4.90;;;2.03;;
25609;SDS011;13479;49.044;8.716;2023-04-24T12:57:51;2.45;;;1.75;;
25609;SDS011;13479;49.044;8.716;2023-04-24T13:00:17;4.93;;;1.67;;
25609;SDS011;13479;49.044;8.716;2023-04-24T13:02:43;3.30;;;1.92;;
25609;SDS011;13479;49.044;8.716;2023-04-24T13:05:08;3.75;;;1.80;;
25609;SDS011;13479;49.044;8.716;2023-04-24T13:07:33;3.58;;;2.10;;
25609;SDS011;13479;49.044;8.716;2023-04-24T13:09:59;4.35;;;1.92;;
25609;SDS011;13479;49.044;8.716;2023-04-24T13:12:24;3.63;;;1.90;;
25609;SDS011;13479;49.044;8.716;2023-04-24T13:14:50;4.22;;;2.13;;
25609;SDS011;13479;49.044;8.716;2023-04-24T13:17:16;2.47;;;1.83;;
25609;SDS011;13479;49.044;8.716;2023-04-24T13:19:41;4.40;;;2.00;;
25609;SDS011;13479;49.044;8.716;2023-04-24T13:22:09;5.43;;;2.10;;
25609;SDS011;13479;49.044;8.716;2023-04-24T13:24:35;3.40;;;2.15;;
25609;SDS011;13479;49.044;8.716;2023-04-24T13:27:00;2.55;;;1.60;;
25609;SDS011;13479;49.044;8.716;2023-04-24T13:29:26;4.15;;;2.00;;
25609;SDS011;13479;49.044;8.716;2023-04-24T13:31:51;5.55;;;1.98;;
25609;SDS011;13479;49.044;8.716;2023-04-24T13:34:19;3.25;;;1.95;;
25609;SDS011;13479;49.044;8.716;2023-04-24T13:36:45;3.00;;;2.00;;
25609;SDS011;13479;49.044;8.716;2023-04-24T13:39:10;5.35;;;2.15;;
25609;SDS011;13479;49.044;8.716;2023-04-24T13:41:36;4.85;;;1.90;;
25609;SDS011;13479;49.044;8.716;2023-04-24T13:44:02;4.82;;;2.00;;
25609;SDS011;13479;49.044;8.716;2023-04-24T13:46:28;3.28;;;2.10;;
25609;SDS011;13479;49.044;8.716;2023-04-24T13:48:53;5.10;;;2.30;;
25609;SDS011;13479;49.044;8.716;2023-04-24T13:51:19;6.55;;;1.95;;
25609;SDS011;13479;49.044;8.716;2023-04-24T13:53:44;4.85;;;1.63;;
25609;SDS011;13479;49.044;8.716;2023-04-24T13:56:10;3.85;;;2.00;;
25609;SDS011;13479;49.044;8.716;2023-04-24T13:58:35;2.78;;;1.73;;
25609;SDS011;13479;49.044;8.716;2023-04-24T14:01:02;3.00;;;1.83;;
25609;SDS011;13479;49.044;8.716;2023-04-24T14:03:28;2.92;;;1.48;;
25609;SDS011;13479;49.044;8.716;2023-04-24T14:05:53;4.22;;;1.70;;
25609;SDS011;13479;49.044;8.716;2023-04-24T14:08:18;3.67;;;2.30;;
25609;SDS011;13479;49.044;8.716;2023-04-24T14:10:44;3.33;;;1.60;;
25609;SDS011;13479;49.044;8.716;2023-04-24T14:13:09;5.35;;;2.30;;
25609;SDS011;13479;49.044;8.716;2023-04-24T14:15:35;3.88;;;2.05;;
25609;SDS011;13479;49.044;8.716;2023-04-24T14:18:01;3.65;;;1.90;;
25609;SDS011;13479;49.044;8.716;2023-04-24T14:20:26;6.28;;;2.30;;
25609;SDS011;13479;49.044;8.716;2023-04-24T14:22:51;4.70;;;2.03;;
25609;SDS011;13479;49.044;8.716;2023-04-24T14:25:16;4.18;;;1.90;;
25609;SDS011;13479;49.044;8.716;2023-04-24T14:27:42;7.03;;;2.55;;
25609;SDS011;13479;49.044;8.716;2023-04-24T14:30:07;6.95;;;2.28;;
25609;SDS011;13479;49.044;8.716;2023-04-24T14:32:33;3.30;;;1.70;;
25609;SDS011;13479;49.044;8.716;2023-04-24T14:34:58;6.20;;;2.10;;
25609;SDS011;13479;49.044;8.716;2023-04-24T14:37:24;3.00;;;1.67;;
25609;SDS011;13479;49.044;8.716;2023-04-24T14:39:49;2.92;;;1.63;;
25609;SDS011;13479;49.044;8.716;2023-04-24T14:42:14;2.65;;;1.63;;
25609;SDS011;13479;49.044;8.716;2023-04-24T14:44:41;3.85;;;1.50;;
25609;SDS011;13479;49.044;8.716;2023-04-24T14:47:07;4.32;;;1.90;;
25609;SDS011;13479;49.044;8.716;2023-04-24T14:49:32;3.25;;;1.80;;
25609;SDS011;13479;49.044;8.716;2023-04-24T14:51:57;2.55;;;1.70;;
25609;SDS011;13479;49.044;8.716;2023-04-24T14:54:22;3.25;;;1.70;;
25609;SDS011;13479;49.044;8.716;2023-04-24T14:56:49;3.45;;;1.88;;
25609;SDS011;13479;49.044;8.716;2023-04-24T14:59:14;3.40;;;1.70;;
25609;SDS011;13479;49.044;8.716;2023-04-24T15:01:40;5.13;;;1.70;;
25609;SDS011;13479;49.044;8.716;2023-04-24T15:04:05;3.88;;;1.70;;
25609;SDS011;13479;49.044;8.716;2023-04-24T15:06:31;2.78;;;1.52;;
25609;SDS011;13479;49.044;8.716;2023-04-24T15:08:56;3.28;;;1.80;;
25609;SDS011;13479;49.044;8.716;2023-04-24T15:11:22;2.72;;;1.77;;
25609;SDS011;13479;49.044;8.716;2023-04-24T15:13:47;2.08;;;1.65;;
25609;SDS011;13479;49.044;8.716;2023-04-24T15:16:12;2.15;;;1.35;;
25609;SDS011;13479;49.044;8.716;2023-04-24T15:18:38;3.45;;;1.65;;
25609;SDS011;13479;49.044;8.716;2023-04-24T15:21:03;2.20;;;1.60;;
25609;SDS011;13479;49.044;8.716;2023-04-24T15:23:28;2.72;;;1.58;;
25609;SDS011;13479;49.044;8.716;2023-04-24T15:25:53;2.95;;;1.77;;
25609;SDS011;13479;49.044;8.716;2023-04-24T15:28:19;2.78;;;1.58;;
25609;SDS011;13479;49.044;8.716;2023-04-24T15:30:46;3.20;;;1.67;;
25609;SDS011;13479;49.044;8.716;2023-04-24T15:33:12;3.45;;;1.60;;
25609;SDS011;13479;49.044;8.716;2023-04-24T15:35:37;5.85;;;1.40;;
25609;SDS011;13479;49.044;8.716;2023-04-24T15:38:02;2.55;;;1.35;;
25609;SDS011;13479;49.044;8.716;2023-04-24T15:40:29;3.83;;;1.55;;
25609;SDS011;13479;49.044;8.716;2023-04-24T15:42:54;2.22;;;1.30;;
25609;SDS011;13479;49.044;8.716;2023-04-24T15:45:19;2.50;;;1.30;;
25609;SDS011;13479;49.044;8.716;2023-04-24T15:47:44;1.88;;;1.30;;
25609;SDS011;13479;49.044;8.716;2023-04-24T15:50:11;2.97;;;1.10;;
25609;SDS011;13479;49.044;8.716;2023-04-24T15:52:36;3.15;;;1.20;;
25609;SDS011;13479;49.044;8.716;2023-04-24T15:55:02;3.45;;;1.17;;
25609;SDS011;13479;49.044;8.716;2023-04-24T15:57:28;2.20;;;1.50;;
25609;SDS011;13479;49.044;8.716;2023-04-24T15:59:54;1.88;;;1.27;;
25609;SDS011;13479;49.044;8.716;2023-04-24T16:02:19;2.50;;;1.10;;
25609;SDS011;13479;49.044;8.716;2023-04-24T16:04:45;1.42;;;1.00;;
25609;SDS011;13479;49.044;8.716;2023-04-24T16:07:12;2.22;;;1.30;;
25609;SDS011;13479;49.044;8.716;2023-04-24T16:09:38;2.58;;;1.40;;
25609;SDS011;13479;49.044;8.716;2023-04-24T16:12:04;3.30;;;1.42;;
25609;SDS011;13479;49.044;8.716;2023-04-24T16:14:29;1.63;;;1.15;;
25609;SDS011;13479;49.044;8.716;2023-04-24T16:16:55;2.67;;;1.15;;
25609;SDS011;13479;49.044;8.716;2023-04-24T16:19:20;4.18;;;1.60;;
25609;SDS011;13479;49.044;8.716;2023-04-24T16:21:45;2.85;;;1.52;;
25609;SDS011;13479;49.044;8.716;2023-04-24T16:24:11;3.67;;;1.50;;
25609;SDS011;13479;49.044;8.716;2023-04-24T16:26:36;3.47;;;1.50;;
25609;SDS011;13479;49.044;8.716;2023-04-24T16:29:01;2.15;;;1.42;;
25609;SDS011;13479;49.044;8.716;2023-04-24T16:31:27;2.78;;;1.40;;
25609;SDS011;13479;49.044;8.716;2023-04-24T16:33:52;3.13;;;1.35;;
25609;SDS011;13479;49.044;8.716;2023-04-24T16:36:19;2.75;;;1.50;;
25609;SDS011;13479;49.044;8.716;2023-04-24T16:38:45;2.72;;;1.42;;
25609;SDS011;13479;49.044;8.716;2023-04-24T16:41:10;2.53;;;1.20;;
25609;SDS011;13479;49.044;8.716;2023-04-24T16:43:35;2.03;;;1.20;;
25609;SDS011;13479;49.044;8.716;2023-04-24T16:46:01;3.75;;;1.40;;
25609;SDS011;13479;49.044;8.716;2023-04-24T16:48:26;1.90;;;1.35;;
25609;SDS011;13479;49.044;8.716;2023-04-24T16:50:51;2.75;;;1.42;;
25609;SDS011;13479;49.044;8.716;2023-04-24T16:53:17;3.90;;;1.20;;
25609;SDS011;13479;49.044;8.716;2023-04-24T16:55:42;1.75;;;1.38;;
25609;SDS011;13479;49.044;8.716;2023-04-24T16:58:08;2.55;;;1.55;;
25609;SDS011;13479;49.044;8.716;2023-04-24T17:00:33;3.08;;;1.60;;
25609;SDS011;13479;49.044;8.716;2023-04-24T17:02:59;2.20;;;1.27;;
25609;SDS011;13479;49.044;8.716;2023-04-24T17:05:24;5.65;;;1.50;;
25609;SDS011;13479;49.044;8.716;2023-04-24T17:07:50;4.95;;;1.50;;
25609;SDS011;13479;49.044;8.716;2023-04-24T17:10:15;4.28;;;1.70;;
25609;SDS011;13479;49.044;8.716;2023-04-24T17:12:40;3.50;;;1.40;;
25609;SDS011;13479;49.044;8.716;2023-04-24T17:15:06;3.35;;;1.40;;
25609;SDS011;13479;49.044;8.716;2023-04-24T17:17:31;1.85;;;1.30;;
25609;SDS011;13479;49.044;8.716;2023-04-24T17:19:57;3.55;;;1.70;;
25609;SDS011;13479;49.044;8.716;2023-04-24T17:22:22;2.63;;;1.85;;
25609;SDS011;13479;49.044;8.716;2023-04-24T17:24:47;2.13;;;1.60;;
25609;SDS011;13479;49.044;8.716;2023-04-24T17:27:13;3.03;;;1.90;;
25609;SDS011;13479;49.044;8.716;2023-04-24T17:29:38;2.97;;;1.88;;
25609;SDS011;13479;49.044;8.716;2023-04-24T17:32:04;2.58;;;1.80;;
25609;SDS011;13479;49.044;8.716;2023-04-24T17:34:29;2.22;;;1.17;;
25609;SDS011;13479;49.044;8.716;2023-04-24T17:36:55;1.35;;;1.10;;
25609;SDS011;13479;49.044;8.716;2023-04-24T17:39:20;1.85;;;1.30;;
25609;SDS011;13479;49.044;8.716;2023-04-24T17:41:46;1.70;;;1.00;;
25609;SDS011;13479;49.044;8.716;2023-04-24T17:44:11;1.38;;;1.13;;
25609;SDS011;13479;49.044;8.716;2023-04-24T17:46:36;4.90;;;1.50;;
25609;SDS011;13479;49.044;8.716;2023-04-24T17:49:01;2.03;;;1.40;;
25609;SDS011;13479;49.044;8.716;2023-04-24T17:51:27;1.55;;;1.30;;
25609;SDS011;13479;49.044;8.716;2023-04-24T17:53:53;2.20;;;1.55;;
25609;SDS011;13479;49.044;8.716;2023-04-24T17:56:18;4.38;;;1.50;;
25609;SDS011;13479;49.044;8.716;2023-04-24T17:58:43;1.90;;;1.45;;
25609;SDS011;13479;49.044;8.716;2023-04-24T18:01:09;2.40;;;1.42;;
25609;SDS011;13479;49.044;8.716;2023-04-24T18:03:34;2.30;;;1.60;;
25609;SDS011;13479;49.044;8.716;2023-04-24T18:05:59;2.45;;;1.52;;
25609;SDS011;13479;49.044;8.716;2023-04-24T18:08:25;2.33;;;1.70;;
25609;SDS011;13479;49.044;8.716;2023-04-24T18:10:50;3.92;;;1.90;;
25609;SDS011;13479;49.044;8.716;2023-04-24T18:13:15;4.03;;;2.13;;
25609;SDS011;13479;49.044;8.716;2023-04-24T18:15:41;2.78;;;1.70;;
25609;SDS011;13479;49.044;8.716;2023-04-24T18:18:07;4.22;;;2.15;;
25609;SDS011;13479;49.044;8.716;2023-04-24T18:20:35;3.75;;;1.77;;
25609;SDS011;13479;49.044;8.716;2023-04-24T18:23:01;3.15;;;1.95;;
25609;SDS011;13479;49.044;8.716;2023-04-24T18:25:27;2.20;;;1.73;;
25609;SDS011;13479;49.044;8.716;2023-04-24T18:27:53;2.70;;;2.10;;
25609;SDS011;13479;49.044;8.716;2023-04-24T18:30:20;3.95;;;2.03;;
25609;SDS011;13479;49.044;8.716;2023-04-24T18:32:49;3.10;;;2.10;;
25609;SDS011;13479;49.044;8.716;2023-04-24T18:35:16;3.75;;;2.40;;
25609;SDS011;13479;49.044;8.716;2023-04-24T18:37:43;3.67;;;1.70;;
25609;SDS011;13479;49.044;8.716;2023-04-24T18:40:09;4.00;;;2.40;;
25609;SDS011;13479;49.044;8.716;2023-04-24T18:42:35;5.18;;;2.45;;
25609;SDS011;13479;49.044;8.716;2023-04-24T18:45:00;3.28;;;2.20;;
25609;SDS011;13479;49.044;8.716;2023-04-24T18:47:29;3.80;;;2.58;;
25609;SDS011;13479;49.044;8.716;2023-04-24T18:49:54;3.53;;;2.17;;
25609;SDS011;13479;49.044;8.716;2023-04-24T18:52:20;4.03;;;2.80;;